Time;durP1;ratioP1;P1;durP2;ratioP2;P2;SDS_P1;SDS_P2;PMS_P1;PMS_P2;Temp;Humidity;BMP_temperature;BMP_pressure;BME280_temperature;BME280_humidity;BME280_pressure;Samples;Min_cycle;Max_cycle;Signal;HPM_P1;HPM_P2
2022/09/02 07:56:52;;;;;;;2.17;0.90;;;;;;;;;;5826936;22;8353197;-85
2022/09/02 07:59:26;;;;;;;2.17;0.50;;;;;;;;;;6179283;23;20068;-86
2022/09/02 08:01:54;;;;;;;1.67;0.73;;;;;;;;;;6178512;23;20100;-86
2022/09/02 08:04:24;;;;;;;2.08;0.70;;;;;;;;;;6178678;23;20033;-86
2022/09/02 08:06:58;;;;;;;1.15;0.80;;;;;;;;;;6178612;23;20025;-86
2022/09/02 08:09:25;;;;;;;0.93;0.73;;;;;;;;;;6178568;23;20075;-86
2022/09/02 08:11:52;;;;;;;1.33;0.80;;;;;;;;;;6179246;23;20020;-87
2022/09/02 08:14:28;;;;;;;1.27;1.00;;;;;;;;;;6179827;23;20025;-86
2022/09/02 08:16:56;;;;;;;2.38;0.77;;;;;;;;;;6178609;23;20021;-86
2022/09/02 08:19:24;;;;;;;1.02;0.55;;;;;;;;;;6178797;23;20017;-86
2022/09/02 08:22:02;;;;;;;1.20;0.95;;;;;;;;;;6178368;23;20095;-85
2022/09/02 08:24:31;;;;;;;1.08;0.85;;;;;;;;;;6179521;23;20125;-86
2022/09/02 08:27:05;;;;;;;0.88;0.70;;;;;;;;;;6177203;23;20025;-86
2022/09/02 08:29:33;;;;;;;0.98;0.60;;;;;;;;;;6179177;23;20025;-87
2022/09/02 08:32:01;;;;;;;1.33;0.75;;;;;;;;;;6178936;23;20421;-86
2022/09/02 08:34:34;;;;;;;1.48;0.50;;;;;;;;;;6179834;23;20111;-84
2022/09/02 08:37:02;;;;;;;0.63;0.50;;;;;;;;;;6177249;23;20025;-85
2022/09/02 08:39:29;;;;;;;1.98;0.90;;;;;;;;;;6178430;23;20397;-84
2022/09/02 08:42:03;;;;;;;0.80;0.68;;;;;;;;;;6178798;23;20025;-83
2022/09/02 08:44:33;;;;;;;0.70;0.70;;;;;;;;;;6178834;23;20080;-82
2022/09/02 08:47:02;;;;;;;0.65;0.60;;;;;;;;;;6179370;23;20056;-84
2022/09/02 08:49:38;;;;;;;0.63;0.52;;;;;;;;;;6179323;23;20029;-84
2022/09/02 08:52:05;;;;;;;2.22;0.57;;;;;;;;;;6178170;23;20053;-85
2022/09/02 08:54:39;;;;;;;0.50;0.50;;;;;;;;;;6177091;23;20080;-86
2022/09/02 08:57:19;;;;;;;0.88;0.75;;;;;;;;;;6208543;23;20083;-84
2022/09/02 08:59:47;;;;;;;0.85;0.70;;;;;;;;;;6209516;23;20086;-84
2022/09/02 09:02:41;;;;;;;1.13;0.70;;;;;;;;;;6207480;23;20039;-84
2022/09/02 09:05:52;;;;;;;0.60;0.55;;;;;;;;;;6183087;23;20024;-84
2022/09/02 09:08:44;;;;;;;0.80;0.80;;;;;;;;;;6057810;23;20487;-85
2022/09/02 09:11:11;;;;;;;0.73;0.70;;;;;;;;;;6059083;23;20047;-82
2022/09/02 09:13:57;;;;;;;0.75;0.70;;;;;;;;;;6141298;23;20016;-85
2022/09/02 09:16:34;;;;;;;0.60;0.60;;;;;;;;;;6209653;23;20402;-84
2022/09/02 09:19:08;;;;;;;1.65;0.70;;;;;;;;;;6209854;23;20373;-83
2022/09/02 09:21:36;;;;;;;0.68;0.57;;;;;;;;;;6210328;23;20075;-83
2022/09/02 09:24:03;;;;;;;;;;;;;;;;;;6211137;23;20082;-84
2022/09/02 09:26:39;;;;;;;0.73;0.40;;;;;;;;;;6210288;23;19993;-83
2022/09/02 09:29:07;;;;;;;0.93;0.60;;;;;;;;;;6210697;23;20132;-83
2022/09/02 09:31:37;;;;;;;2.05;0.55;;;;;;;;;;6183581;23;20461;-83
2022/09/02 09:34:13;;;;;;;1.50;0.73;;;;;;;;;;6211636;23;20043;-84
2022/09/02 09:36:40;;;;;;;0.63;0.55;;;;;;;;;;6183422;23;20794;-83
2022/09/02 09:39:17;;;;;;;2.28;0.60;;;;;;;;;;6210472;23;20083;-83
2022/09/02 09:41:59;;;;;;;0.82;0.50;;;;;;;;;;6209978;23;20035;-83
2022/09/02 09:44:39;;;;;;;1.33;0.75;;;;;;;;;;6210648;23;20025;-83
2022/09/02 09:47:21;;;;;;;0.68;0.65;;;;;;;;;;6184303;23;20078;-83
2022/09/02 09:49:49;;;;;;;4.32;0.60;;;;;;;;;;6210423;23;20087;-85
2022/09/02 09:52:28;;;;;;;0.60;0.50;;;;;;;;;;6209493;23;20060;-83
2022/09/02 09:55:16;;;;;;;2.95;0.60;;;;;;;;;;6208280;23;20512;-84
2022/09/02 09:57:53;;;;;;;0.40;0.40;;;;;;;;;;6209836;23;20063;-85
2022/09/02 10:00:20;;;;;;;0.70;0.40;;;;;;;;;;6209631;23;20544;-85
2022/09/02 10:02:49;;;;;;;0.93;0.73;;;;;;;;;;6210239;23;20551;-87
2022/09/02 10:05:23;;;;;;;0.40;0.40;;;;;;;;;;6210143;23;20021;-83
2022/09/02 10:07:58;;;;;;;0.43;0.43;;;;;;;;;;6209278;23;20035;-84
2022/09/02 10:10:54;;;;;;;0.50;0.50;;;;;;;;;;6210298;23;20378;-85
2022/09/02 10:13:24;;;;;;;0.70;0.50;;;;;;;;;;6209303;23;20059;-85
2022/09/02 10:15:58;;;;;;;0.52;0.52;;;;;;;;;;6210475;23;20036;-85
2022/09/02 10:18:37;;;;;;;0.63;0.47;;;;;;;;;;6210002;23;20021;-84
2022/09/02 10:21:27;;;;;;;0.45;0.40;;;;;;;;;;6210288;23;20099;-86
2022/09/02 10:24:03;;;;;;;2.70;0.70;;;;;;;;;;6210262;23;20078;-83
2022/09/02 10:26:42;;;;;;;0.47;0.47;;;;;;;;;;6210408;23;20028;-83
2022/09/02 10:29:18;;;;;;;1.00;0.30;;;;;;;;;;6209511;23;20020;-84
2022/09/02 10:32:05;;;;;;;0.40;0.40;;;;;;;;;;6210474;23;20028;-83
2022/09/02 10:34:32;;;;;;;0.60;0.50;;;;;;;;;;6211745;23;20032;-83
2022/09/02 10:37:17;;;;;;;0.73;0.40;;;;;;;;;;6184143;23;20621;-85
2022/09/02 10:39:57;;;;;;;0.57;0.50;;;;;;;;;;6210078;23;20020;-83
2022/09/02 10:42:42;;;;;;;1.38;0.57;;;;;;;;;;6184384;23;20047;-83
2022/09/02 10:45:35;;;;;;;0.65;0.52;;;;;;;;;;6209323;23;20478;-84
2022/09/02 10:48:28;;;;;;;0.60;0.45;;;;;;;;;;6209369;23;20024;-83
2022/09/02 10:51:00;;;;;;;0.95;0.50;;;;;;;;;;6210134;23;20087;-84
2022/09/02 10:53:34;;;;;;;0.60;0.47;;;;;;;;;;6209559;23;20028;-84
2022/09/02 10:56:22;;;;;;;1.35;0.65;;;;;;;;;;6208853;23;20025;-85
2022/09/02 10:59:00;;;;;;;0.60;0.60;;;;;;;;;;6209473;23;20070;-83
2022/09/02 11:01:34;;;;;;;0.20;0.20;;;;;;;;;;6182734;23;20335;-81
2022/09/02 11:04:08;;;;;;;0.60;0.40;;;;;;;;;;6209703;23;20023;-86
2022/09/02 11:06:38;;;;;;;1.35;0.50;;;;;;;;;;6208433;23;20543;-83
2022/09/02 11:09:28;;;;;;;0.47;0.47;;;;;;;;;;6209465;23;20063;-83
2022/09/02 11:12:09;;;;;;;0.28;0.28;;;;;;;;;;6209476;23;20021;-85
2022/09/02 11:14:43;;;;;;;1.98;0.55;;;;;;;;;;6208865;23;20076;-83
2022/09/02 11:17:27;;;;;;;0.80;0.60;;;;;;;;;;6209257;23;20082;-84
2022/09/02 11:20:10;;;;;;;0.60;0.55;;;;;;;;;;6209325;23;20323;-85
2022/09/02 11:22:59;;;;;;;1.33;0.40;;;;;;;;;;6207866;23;20342;-85
2022/09/02 11:25:29;;;;;;;0.63;0.60;;;;;;;;;;6209753;23;20020;-85
2022/09/02 11:28:11;;;;;;;0.40;0.40;;;;;;;;;;6209436;23;20025;-84
2022/09/02 11:30:44;;;;;;;2.42;0.63;;;;;;;;;;6208632;23;20025;-87
2022/09/02 11:33:18;;;;;;;;;;;;;;;;;;6209721;23;20083;-84
2022/09/02 11:35:46;;;;;;;0.63;0.60;;;;;;;;;;6209789;23;19970;-82
2022/09/02 11:38:13;;;;;;;;;;;;;;;;;;6208944;23;20024;-83
2022/09/02 11:41:05;;;;;;;0.80;0.70;;;;;;;;;;6210036;23;19926;-84
2022/09/02 11:43:55;;;;;;;0.52;0.50;;;;;;;;;;6209095;23;20056;-83
2022/09/02 11:46:52;;;;;;;2.45;0.50;;;;;;;;;;6209016;23;20094;-84
2022/09/02 11:49:38;;;;;;;2.30;0.40;;;;;;;;;;6208472;23;20326;-82
2022/09/02 11:52:28;;;;;;;0.60;0.60;;;;;;;;;;6208893;23;20041;-83
2022/09/02 11:55:15;;;;;;;0.52;0.50;;;;;;;;;;6206363;23;20615;-83
2022/09/02 11:58:00;;;;;;;0.70;0.50;;;;;;;;;;6183445;23;20028;-86
2022/09/02 12:00:35;;;;;;;1.02;0.47;;;;;;;;;;6208320;23;20096;-82
2022/09/02 12:03:12;;;;;;;1.10;0.60;;;;;;;;;;6208615;23;20461;-85
2022/09/02 12:06:09;;;;;;;0.52;0.47;;;;;;;;;;6209495;23;20111;-84
2022/09/02 12:08:44;;;;;;;0.60;0.50;;;;;;;;;;6207575;23;20345;-82
2022/09/02 12:11:30;;;;;;;1.52;0.40;;;;;;;;;;6182937;23;20044;-85
2022/09/02 12:14:05;;;;;;;0.50;0.30;;;;;;;;;;6208514;23;20028;-84
2022/09/02 12:16:41;;;;;;;2.25;0.63;;;;;;;;;;6209708;23;20075;-83
2022/09/02 12:19:24;;;;;;;0.95;0.52;;;;;;;;;;6209398;23;20090;-84
2022/09/02 12:22:11;;;;;;;1.23;0.60;;;;;;;;;;6208508;23;20020;-84
2022/09/02 12:24:49;;;;;;;1.73;0.60;;;;;;;;;;6209517;23;20028;-85
2022/09/02 12:27:22;;;;;;;0.57;0.50;;;;;;;;;;6209124;23;20016;-85
2022/09/02 12:29:57;;;;;;;0.60;0.60;;;;;;;;;;6208194;23;20025;-83
2022/09/02 12:32:24;;;;;;;;;;;;;;;;;;6208818;23;20025;-86
2022/09/02 12:34:53;;;;;;;0.60;0.60;;;;;;;;;;6209392;23;19939;-83
2022/09/02 12:37:50;;;;;;;0.65;0.50;;;;;;;;;;6207908;23;20353;-82
2022/09/02 12:40:25;;;;;;;0.45;0.45;;;;;;;;;;6208983;23;20369;-83
2022/09/02 12:43:00;;;;;;;0.63;0.57;;;;;;;;;;6209780;23;20024;-84
2022/09/02 12:45:30;;;;;;;0.90;0.70;;;;;;;;;;6209718;23;20021;-84
2022/09/02 12:48:11;;;;;;;0.55;0.55;;;;;;;;;;6210886;23;20056;-83
2022/09/02 12:50:57;;;;;;;2.13;0.63;;;;;;;;;;6188885;23;20024;-83
2022/09/02 12:53:28;;;;;;;0.40;0.40;;;;;;;;;;6211285;23;20510;-86
2022/09/02 12:56:15;;;;;;;1.55;0.77;;;;;;;;;;6209176;23;20418;-83
2022/09/02 12:58:47;;;;;;;2.40;0.60;;;;;;;;;;6209633;23;20505;-83
2022/09/02 13:01:44;;;;;;;3.63;0.75;;;;;;;;;;6210296;23;20039;-84
2022/09/02 13:04:30;;;;;;;0.38;0.30;;;;;;;;;;6211100;23;20023;-84
2022/09/02 13:07:23;;;;;;;0.70;0.60;;;;;;;;;;6210422;23;20025;-84
2022/09/02 13:10:09;;;;;;;2.97;0.60;;;;;;;;;;6210353;23;20025;-83
2022/09/02 13:12:52;;;;;;;1.00;0.50;;;;;;;;;;6210479;23;20357;-83
2022/09/02 13:15:26;;;;;;;0.52;0.40;;;;;;;;;;6210418;23;20028;-83
2022/09/02 13:18:18;;;;;;;0.60;0.60;;;;;;;;;;6210715;23;20458;-83
2022/09/02 13:20:54;;;;;;;0.50;0.47;;;;;;;;;;6210664;23;20074;-83
2022/09/02 13:23:39;;;;;;;2.90;0.57;;;;;;;;;;6185648;23;20028;-83
2022/09/02 13:26:25;;;;;;;0.95;0.40;;;;;;;;;;6211361;23;20032;-83
2022/09/02 13:29:15;;;;;;;1.15;0.50;;;;;;;;;;6209233;23;20028;-83
2022/09/02 13:31:59;;;;;;;1.20;0.88;;;;;;;;;;6210631;23;20374;-84
2022/09/02 13:34:33;;;;;;;1.58;0.70;;;;;;;;;;6210150;23;20106;-85
2022/09/02 13:37:00;;;;;;;;;;;;;;;;;;6185317;23;20032;-84
2022/09/02 13:39:27;;;;;;;0.52;0.52;;;;;;;;;;6210744;23;19939;-83
2022/09/02 13:42:19;;;;;;;1.23;0.60;;;;;;;;;;6209649;23;20028;-84
2022/09/02 13:44:49;;;;;;;0.50;0.43;;;;;;;;;;6210950;23;20031;-83
2022/09/02 13:47:23;;;;;;;0.50;0.50;;;;;;;;;;6184352;23;20029;-83
2022/09/02 13:49:52;;;;;;;0.55;0.55;;;;;;;;;;6209959;23;20064;-86
2022/09/02 13:52:20;;;;;;;0.57;0.52;;;;;;;;;;6210740;23;20326;-84
2022/09/02 13:55:26;;;;;;;0.80;0.65;;;;;;;;;;6187731;23;20021;-83
2022/09/02 13:58:02;;;;;;;0.93;0.70;;;;;;;;;;6208154;23;20025;-83
2022/09/02 14:00:38;;;;;;;0.47;0.47;;;;;;;;;;6210403;23;20063;-84
2022/09/02 14:03:14;;;;;;;0.60;0.60;;;;;;;;;;6210038;23;20021;-84
2022/09/02 14:05:51;;;;;;;0.47;0.45;;;;;;;;;;6209454;23;20078;-84
2022/09/02 14:08:19;;;;;;;1.15;0.70;;;;;;;;;;6210811;23;20059;-83
2022/09/02 14:10:48;;;;;;;1.20;0.57;;;;;;;;;;6210372;23;20096;-84
2022/09/02 14:13:22;;;;;;;0.40;0.40;;;;;;;;;;6208749;23;20079;-84
2022/09/02 14:15:50;;;;;;;2.25;0.90;;;;;;;;;;6209476;23;20520;-86
2022/09/02 14:18:18;;;;;;;2.38;0.50;;;;;;;;;;6209366;23;20465;-83
2022/09/02 14:20:56;;;;;;;0.73;0.60;;;;;;;;;;6191700;23;20459;-84
2022/09/02 14:23:24;;;;;;;0.93;0.70;;;;;;;;;;6144315;23;20067;-87
2022/09/02 14:26:02;;;;;;;0.65;0.55;;;;;;;;;;6145793;23;20026;-87
2022/09/02 14:28:39;;;;;;;0.65;0.55;;;;;;;;;;6149126;23;20021;-83
2022/09/02 14:31:07;;;;;;;0.55;0.55;;;;;;;;;;6149682;23;20053;-83
2022/09/02 14:33:42;;;;;;;2.45;0.57;;;;;;;;;;6148658;23;20466;-85
2022/09/02 14:36:20;;;;;;;1.30;0.60;;;;;;;;;;6149711;23;20021;-83
2022/09/02 14:38:47;;;;;;;1.10;0.60;;;;;;;;;;6150387;23;20017;-84
2022/09/02 14:41:17;;;;;;;1.88;0.60;;;;;;;;;;6148787;23;20057;-86
2022/09/02 14:43:59;;;;;;;1.23;0.50;;;;;;;;;;6149182;23;20384;-84
2022/09/02 14:46:28;;;;;;;1.95;0.93;;;;;;;;;;6149910;23;20402;-83
2022/09/02 14:49:03;;;;;;;0.85;0.55;;;;;;;;;;6149112;23;20124;-84
2022/09/02 14:51:35;;;;;;;0.68;0.30;;;;;;;;;;6150618;23;20076;-84
2022/09/02 14:54:10;;;;;;;0.70;0.70;;;;;;;;;;6149027;23;20029;-85
2022/09/02 14:56:43;;;;;;;;;;;;;;;;;;6147490;23;20025;-84
2022/09/02 14:59:18;;;;;;;3.20;0.52;;;;;;;;;;6149383;23;19927;-86
2022/09/02 15:01:47;;;;;;;0.95;0.60;;;;;;;;;;6149591;23;20029;-85
2022/09/02 15:04:14;;;;;;;0.57;0.57;;;;;;;;;;6148612;23;20413;-84
2022/09/02 15:06:49;;;;;;;0.57;0.57;;;;;;;;;;6149829;23;20032;-84
2022/09/02 15:09:16;;;;;;;0.40;0.40;;;;;;;;;;6148836;23;20049;-84
2022/09/02 15:11:43;;;;;;;;;;;;;;;;;;6149437;23;20067;-84
2022/09/02 15:14:17;;;;;;;0.60;0.60;;;;;;;;;;6148747;23;19916;-83
2022/09/02 15:16:44;;;;;;;1.50;0.60;;;;;;;;;;6150664;23;20386;-84
2022/09/02 15:19:12;;;;;;;0.45;0.45;;;;;;;;;;6148255;23;20088;-88
2022/09/02 15:21:46;;;;;;;1.33;0.70;;;;;;;;;;6149378;23;20026;-84
2022/09/02 15:24:14;;;;;;;;;;;;;;;;;;6148832;23;20025;-86
2022/09/02 15:26:41;;;;;;;1.27;0.60;;;;;;;;;;6148611;23;19975;-86
2022/09/02 15:29:14;;;;;;;0.52;0.47;;;;;;;;;;6149192;23;20064;-87
2022/09/02 15:31:42;;;;;;;0.60;0.60;;;;;;;;;;6150743;23;20076;-84
2022/09/02 15:34:09;;;;;;;1.58;0.60;;;;;;;;;;6148708;23;20354;-84
2022/09/02 15:36:44;;;;;;;1.45;0.95;;;;;;;;;;6149855;23;20386;-86
2022/09/02 15:39:12;;;;;;;1.27;0.70;;;;;;;;;;6149251;23;20485;-88
2022/09/02 15:41:42;;;;;;;0.55;0.40;;;;;;;;;;6149594;23;20406;-85
2022/09/02 15:44:17;;;;;;;2.63;0.55;;;;;;;;;;6149750;23;20104;-84
2022/09/02 15:46:45;;;;;;;0.70;0.50;;;;;;;;;;6148308;23;20026;-85
2022/09/02 15:49:14;;;;;;;0.40;0.40;;;;;;;;;;6147314;23;20766;-85
2022/09/02 15:51:48;;;;;;;1.35;0.50;;;;;;;;;;6149146;23;20025;-84
2022/09/02 15:54:16;;;;;;;0.55;0.40;;;;;;;;;;6148671;23;20076;-85
2022/09/02 15:56:45;;;;;;;0.65;0.47;;;;;;;;;;6147430;23;20030;-86
2022/09/02 15:59:20;;;;;;;0.35;0.35;;;;;;;;;;6148757;23;20080;-85
2022/09/02 16:01:49;;;;;;;0.50;0.50;;;;;;;;;;6149810;23;20026;-85
2022/09/02 16:04:16;;;;;;;1.42;0.50;;;;;;;;;;6148174;23;20029;-85
2022/09/02 16:06:51;;;;;;;2.40;0.40;;;;;;;;;;6148657;23;20021;-86
2022/09/02 16:09:19;;;;;;;0.90;0.50;;;;;;;;;;6149460;23;20390;-85
2022/09/02 16:11:48;;;;;;;0.50;0.50;;;;;;;;;;6149232;23;20347;-86
2022/09/02 16:14:22;;;;;;;1.30;0.43;;;;;;;;;;6149885;23;20030;-86
2022/09/02 16:16:51;;;;;;;2.38;0.40;;;;;;;;;;6149894;23;20026;-86
2022/09/02 16:19:23;;;;;;;2.42;0.60;;;;;;;;;;6149331;23;20025;-86
2022/09/02 16:21:56;;;;;;;0.65;0.45;;;;;;;;;;6150527;23;20493;-84
2022/09/02 16:24:24;;;;;;;1.48;0.50;;;;;;;;;;6149401;23;20396;-86
2022/09/02 16:26:51;;;;;;;4.30;0.57;;;;;;;;;;6148180;23;20029;-86
2022/09/02 16:29:29;;;;;;;1.20;0.47;;;;;;;;;;6146899;23;20093;-86
2022/09/02 16:31:56;;;;;;;4.88;0.60;;;;;;;;;;6148893;23;20029;-85
2022/09/02 16:34:45;;;;;;;0.70;0.50;;;;;;;;;;6148632;23;20108;-84
2022/09/02 16:37:19;;;;;;;0.47;0.40;;;;;;;;;;6149785;23;20084;-85
2022/09/02 16:39:47;;;;;;;0.50;0.47;;;;;;;;;;6147009;23;20067;-85
2022/09/02 16:42:14;;;;;;;1.02;0.60;;;;;;;;;;6147834;23;20050;-87
2022/09/02 16:44:51;;;;;;;0.63;0.50;;;;;;;;;;6149051;23;20021;-89
2022/09/02 16:47:18;;;;;;;1.08;0.70;;;;;;;;;;6150270;23;20025;-85
2022/09/02 16:49:45;;;;;;;0.40;0.40;;;;;;;;;;6149465;23;20045;-85
2022/09/02 16:52:19;;;;;;;2.42;0.32;;;;;;;;;;6148477;23;20026;-86
2022/09/02 16:54:47;;;;;;;1.23;0.50;;;;;;;;;;6147684;23;20425;-86
2022/09/02 16:57:14;;;;;;;0.52;0.52;;;;;;;;;;6148302;23;20104;-86
2022/09/02 16:59:50;;;;;;;0.65;0.50;;;;;;;;;;6148519;23;20320;-86
2022/09/02 17:02:17;;;;;;;1.25;0.82;;;;;;;;;;6148617;23;20026;-86
2022/09/02 17:04:44;;;;;;;4.38;0.63;;;;;;;;;;6149691;23;20030;-86
2022/09/02 17:07:19;;;;;;;0.40;0.40;;;;;;;;;;6145651;23;20791;-87
2022/09/02 17:09:46;;;;;;;0.50;0.50;;;;;;;;;;6145667;23;20467;-86
2022/09/02 17:12:13;;;;;;;1.00;0.45;;;;;;;;;;6149028;23;20185;-86
2022/09/02 17:14:47;;;;;;;0.85;0.60;;;;;;;;;;6149376;23;20092;-86
2022/09/02 17:17:16;;;;;;;0.30;0.30;;;;;;;;;;6149289;23;20056;-86
2022/09/02 17:19:43;;;;;;;1.10;0.70;;;;;;;;;;6150387;23;20032;-87
2022/09/02 17:22:16;;;;;;;1.25;0.70;;;;;;;;;;6149926;23;20018;-86
2022/09/02 17:24:44;;;;;;;0.95;0.80;;;;;;;;;;6149800;23;20033;-88
2022/09/02 17:27:11;;;;;;;4.45;0.55;;;;;;;;;;6150299;23;20021;-87
2022/09/02 17:29:45;;;;;;;0.80;0.60;;;;;;;;;;6149314;23;20487;-85
2022/09/02 17:32:16;;;;;;;1.50;0.60;;;;;;;;;;6151205;23;20108;-85
2022/09/02 17:34:43;;;;;;;2.08;0.60;;;;;;;;;;6151922;23;20466;-85
2022/09/02 17:37:18;;;;;;;0.50;0.40;;;;;;;;;;6152128;23;20088;-84
2022/09/02 17:39:45;;;;;;;3.70;0.60;;;;;;;;;;6149039;23;20533;-85
2022/09/02 17:42:13;;;;;;;0.82;0.40;;;;;;;;;;6151415;23;20029;-87
2022/09/02 17:44:47;;;;;;;2.45;0.90;;;;;;;;;;6151267;23;20026;-85
2022/09/02 17:47:17;;;;;;;0.77;0.50;;;;;;;;;;6152461;23;20740;-86
2022/09/02 17:49:44;;;;;;;1.45;0.73;;;;;;;;;;6152636;23;20087;-87
2022/09/02 17:52:22;;;;;;;1.05;0.68;;;;;;;;;;6151249;23;20105;-86
2022/09/02 17:54:50;;;;;;;0.60;0.60;;;;;;;;;;6151902;23;20072;-85
2022/09/02 17:57:22;;;;;;;1.33;0.60;;;;;;;;;;6149477;23;20096;-86
2022/09/02 18:00:08;;;;;;;1.38;0.55;;;;;;;;;;6151936;23;20339;-88
2022/09/02 18:02:42;;;;;;;0.68;0.50;;;;;;;;;;6151195;23;20052;-87
2022/09/02 18:05:57;;;;;;;1.48;0.55;;;;;;;;;;6151354;23;20082;-87
2022/09/02 18:08:31;;;;;;;0.73;0.70;;;;;;;;;;6089973;23;20933;-86
2022/09/02 18:11:06;;;;;;;1.17;0.57;;;;;;;;;;6141540;23;20025;-87
2022/09/02 18:13:54;;;;;;;1.17;0.73;;;;;;;;;;6152063;23;20026;-86
2022/09/02 18:16:28;;;;;;;1.90;0.50;;;;;;;;;;6122442;23;20022;-89
2022/09/02 18:19:17;;;;;;;0.77;0.60;;;;;;;;;;6151554;23;20029;-87
2022/09/02 18:21:57;;;;;;;0.70;0.43;;;;;;;;;;6122745;23;20371;-87
2022/09/02 18:24:24;;;;;;;1.92;0.65;;;;;;;;;;6148416;23;20033;-91
2022/09/02 18:27:05;;;;;;;1.33;0.80;;;;;;;;;;6150669;23;20018;-88
2022/09/02 18:29:56;;;;;;;0.80;0.60;;;;;;;;;;6151285;23;20025;-86
2022/09/02 18:32:32;;;;;;;1.55;0.85;;;;;;;;;;6145355;23;20537;-87
2022/09/02 18:35:20;;;;;;;1.20;0.60;;;;;;;;;;6149208;23;20358;-87
2022/09/02 18:38:13;;;;;;;0.73;0.70;;;;;;;;;;6146550;23;20359;-87
2022/09/02 18:40:47;;;;;;;1.02;0.80;;;;;;;;;;6149874;23;20021;-89
2022/09/02 18:43:38;;;;;;;0.98;0.80;;;;;;;;;;6148504;23;20083;-89
2022/09/02 18:46:07;;;;;;;1.25;0.80;;;;;;;;;;6145259;23;20053;-89
2022/09/02 18:48:45;;;;;;;1.13;0.70;;;;;;;;;;6149461;23;20048;-87
2022/09/02 18:51:39;;;;;;;2.35;1.05;;;;;;;;;;6149471;23;20025;-89
2022/09/02 18:54:34;;;;;;;2.65;0.80;;;;;;;;;;6146304;23;20025;-90
2022/09/02 18:57:08;;;;;;;1.60;0.70;;;;;;;;;;6145540;23;20470;-88
2022/09/02 19:00:00;;;;;;;1.27;0.70;;;;;;;;;;6147938;23;20037;-87
2022/09/02 19:02:34;;;;;;;0.70;0.60;;;;;;;;;;6148205;23;20354;-88
2022/09/02 19:05:13;;;;;;;1.27;0.70;;;;;;;;;;6145041;23;20026;-87
2022/09/02 19:10:38;;;;;;;2.08;0.40;;;;;;;;;;6146224;23;20064;-87
2022/09/02 19:13:07;;;;;;;1.42;0.40;;;;;;;;;;6143264;23;20096;-87
2022/09/02 19:15:34;;;;;;;1.60;0.90;;;;;;;;;;6146498;23;20474;-88
2022/09/02 19:18:10;;;;;;;3.15;0.70;;;;;;;;;;6147540;23;20052;-90
2022/09/02 19:20:38;;;;;;;3.53;0.77;;;;;;;;;;6142856;23;20033;-89
2022/09/02 19:23:06;;;;;;;1.60;0.60;;;;;;;;;;6145388;23;20443;-90
2022/09/02 19:25:42;;;;;;;1.00;0.65;;;;;;;;;;6147657;23;20033;-87
2022/09/02 19:28:11;;;;;;;2.95;0.88;;;;;;;;;;6147571;23;20087;-89
2022/09/02 19:30:39;;;;;;;2.40;0.95;;;;;;;;;;6147148;23;20029;-89
2022/09/02 19:33:13;;;;;;;0.93;0.70;;;;;;;;;;6141968;23;20025;-89
2022/09/02 19:35:42;;;;;;;3.40;0.88;;;;;;;;;;6146940;23;20025;-90
2022/09/02 19:38:10;;;;;;;1.20;0.90;;;;;;;;;;6146304;23;20025;-86
2022/09/02 19:40:48;;;;;;;4.90;0.90;;;;;;;;;;6144284;23;20387;-89
2022/09/02 19:43:15;;;;;;;1.02;0.73;;;;;;;;;;6145075;23;20466;-91
2022/09/02 19:45:42;;;;;;;;;;;;;;;;;;6146579;23;20029;-88
2022/09/02 19:48:17;;;;;;;0.70;0.50;;;;;;;;;;6147809;23;19923;-90
2022/09/02 19:50:45;;;;;;;1.80;1.25;;;;;;;;;;6146534;23;20025;-90
2022/09/02 19:53:17;;;;;;;2.03;1.05;;;;;;;;;;6145681;23;20052;-88
2022/09/02 19:56:05;;;;;;;0.82;0.68;;;;;;;;;;6144027;23;20063;-89
2022/09/02 19:58:41;;;;;;;1.10;0.73;;;;;;;;;;6143491;23;20024;-91
2022/09/02 20:01:15;;;;;;;0.70;0.70;;;;;;;;;;6145789;23;20033;-88
2022/09/02 20:03:43;;;;;;;1.45;0.93;;;;;;;;;;6145906;23;20494;-89
2022/09/02 20:06:10;;;;;;;1.13;0.98;;;;;;;;;;6145798;23;20486;-87
2022/09/02 20:08:43;;;;;;;1.83;0.95;;;;;;;;;;6146559;23;20029;-90
2022/09/02 20:11:11;;;;;;;2.22;0.77;;;;;;;;;;6146226;23;20021;-90
2022/09/02 20:13:38;;;;;;;3.25;0.80;;;;;;;;;;6144978;23;20467;-90
2022/09/02 20:16:16;;;;;;;1.17;0.82;;;;;;;;;;6144590;23;20030;-88
2022/09/02 20:18:45;;;;;;;1.25;0.75;;;;;;;;;;6145673;23;20056;-90
2022/09/02 20:21:23;;;;;;;0.88;0.85;;;;;;;;;;6144162;23;20052;-90
2022/09/02 20:23:52;;;;;;;1.70;0.90;;;;;;;;;;6145280;23;20061;-88
2022/09/02 20:26:33;;;;;;;0.93;0.80;;;;;;;;;;6146106;23;20084;-88
2022/09/02 20:29:19;;;;;;;1.10;0.80;;;;;;;;;;6145967;23;20462;-89
2022/09/02 20:32:06;;;;;;;1.48;0.80;;;;;;;;;;6143774;23;20338;-90
2022/09/02 20:34:47;;;;;;;1.10;0.77;;;;;;;;;;6143928;23;20029;-89
2022/09/02 20:37:39;;;;;;;1.10;0.93;;;;;;;;;;6145465;23;20045;-89
2022/09/02 20:40:22;;;;;;;1.17;0.93;;;;;;;;;;6143947;23;20347;-89
2022/09/02 20:42:55;;;;;;;;;;;;;;;;;;6145085;23;20553;-89
2022/09/02 20:45:27;;;;;;;0.68;0.60;;;;;;;;;;6145616;23;20381;-90
2022/09/02 20:48:00;;;;;;;1.15;0.73;;;;;;;;;;6144506;23;20593;-87
2022/09/02 20:50:39;;;;;;;1.92;0.75;;;;;;;;;;6146916;23;20277;-89
2022/09/02 20:53:20;;;;;;;0.95;0.88;;;;;;;;;;6145112;23;20052;-88
2022/09/02 20:56:15;;;;;;;0.75;0.70;;;;;;;;;;6144827;23;20462;-91
2022/09/02 20:58:49;;;;;;;6.68;1.10;;;;;;;;;;6146139;23;20030;-89
2022/09/02 21:01:26;;;;;;;0.93;0.70;;;;;;;;;;6144950;23;20047;-93
2022/09/02 21:04:05;;;;;;;1.83;1.25;;;;;;;;;;6147285;23;20030;-89
2022/09/02 21:06:52;;;;;;;3.03;0.90;;;;;;;;;;6149474;23;20485;-91
2022/09/02 21:09:43;;;;;;;1.35;0.70;;;;;;;;;;6147477;23;20080;-91
2022/09/02 21:12:28;;;;;;;2.88;1.05;;;;;;;;;;6144995;23;20466;-91
2022/09/02 21:15:19;;;;;;;1.73;0.75;;;;;;;;;;6149282;23;20033;-89
2022/09/02 21:17:57;;;;;;;3.78;0.77;;;;;;;;;;6139255;23;20040;-89
2022/09/02 21:20:35;;;;;;;4.40;0.65;;;;;;;;;;6147937;23;20033;-88
2022/09/02 21:23:13;;;;;;;1.30;0.57;;;;;;;;;;6148816;23;20068;-87
2022/09/02 21:25:56;;;;;;;1.48;0.85;;;;;;;;;;6148404;23;20305;-88
2022/09/02 21:28:43;;;;;;;3.03;0.90;;;;;;;;;;6148171;23;20041;-90
2022/09/02 21:31:16;;;;;;;1.20;0.95;;;;;;;;;;6148230;23;20029;-89
2022/09/02 21:33:51;;;;;;;1.20;0.68;;;;;;;;;;6141941;23;20478;-89
2022/09/02 21:36:22;;;;;;;0.77;0.70;;;;;;;;;;6144705;23;20084;-87
2022/09/02 21:38:57;;;;;;;2.72;0.90;;;;;;;;;;6149088;23;20327;-85
2022/09/02 21:41:31;;;;;;;1.60;0.60;;;;;;;;;;6148173;23;20080;-86
2022/09/02 21:44:16;;;;;;;1.55;0.82;;;;;;;;;;6150132;23;20026;-84
2022/09/02 21:46:43;;;;;;;;;;;;;;;;;;6150570;23;20030;-87
2022/09/02 21:49:33;;;;;;;1.50;0.93;;;;;;;;;;6148682;23;19979;-87
2022/09/02 21:52:10;;;;;;;2.08;0.90;;;;;;;;;;6149116;23;20067;-87
2022/09/02 21:54:47;;;;;;;0.60;0.60;;;;;;;;;;6150376;23;20018;-86
2022/09/02 21:57:44;;;;;;;1.27;1.00;;;;;;;;;;6145316;23;20057;-87
2022/09/02 22:00:19;;;;;;;0.70;0.70;;;;;;;;;;6149479;23;20032;-87
2022/09/02 22:03:05;;;;;;;1.00;0.77;;;;;;;;;;6150232;23;20025;-86
2022/09/02 22:06:04;;;;;;;5.20;0.90;;;;;;;;;;6148310;23;20471;-88
2022/09/02 22:08:38;;;;;;;9.68;1.17;;;;;;;;;;6149413;23;20025;-86
2022/09/02 22:11:16;;;;;;;2.33;1.00;;;;;;;;;;6148500;23;20024;-86
2022/09/02 22:13:44;;;;;;;0.77;0.65;;;;;;;;;;6150615;23;20021;-87
2022/09/02 22:16:15;;;;;;;1.48;0.80;;;;;;;;;;6148928;23;20092;-86
2022/09/02 22:18:58;;;;;;;2.65;0.90;;;;;;;;;;6146427;23;20096;-86
2022/09/02 22:21:47;;;;;;;0.82;0.82;;;;;;;;;;6149634;23;20026;-86
2022/09/02 22:24:27;;;;;;;3.30;0.93;;;;;;;;;;6148662;23;20474;-87
2022/09/02 22:27:16;;;;;;;0.70;0.70;;;;;;;;;;6149281;23;20029;-86
2022/09/02 22:30:08;;;;;;;2.05;0.80;;;;;;;;;;6147869;23;20021;-86
2022/09/02 22:32:39;;;;;;;0.75;0.75;;;;;;;;;;6149210;23;20507;-87
2022/09/02 22:35:13;;;;;;;;;;;;;;;;;;6147297;23;20080;-88
2022/09/02 22:37:51;;;;;;;0.73;0.70;;;;;;;;;;6147685;23;19967;-86
2022/09/02 22:40:28;;;;;;;4.40;1.00;;;;;;;;;;6148179;23;20029;-86
2022/09/02 22:42:57;;;;;;;1.45;0.80;;;;;;;;;;6146774;23;20061;-86
2022/09/02 22:54:08;;;;;;;1.37;0.90;;;;;;;;;;6150520;23;20021;-86
2022/09/02 22:56:56;;;;;;;1.65;1.02;;;;;;;;;;6147473;23;20276;-86
2022/09/02 22:59:47;;;;;;;4.70;0.90;;;;;;;;;;6149323;23;20398;-86
2022/09/02 23:02:20;;;;;;;1.02;0.90;;;;;;;;;;6149865;23;20021;-87
2022/09/02 23:05:03;;;;;;;1.02;0.90;;;;;;;;;;6148613;23;20722;-87
2022/09/02 23:07:31;;;;;;;0.85;0.65;;;;;;;;;;6148652;23;20029;-85
2022/09/02 23:10:22;;;;;;;1.10;1.00;;;;;;;;;;6147298;23;20056;-86
2022/09/02 23:13:17;;;;;;;1.70;0.90;;;;;;;;;;6150442;23;20096;-87
2022/09/02 23:16:10;;;;;;;1.15;0.80;;;;;;;;;;6148406;23;20022;-86
2022/09/02 23:18:48;;;;;;;2.53;1.10;;;;;;;;;;6148594;23;20450;-86
2022/09/02 23:21:47;;;;;;;1.05;0.82;;;;;;;;;;6148585;23;20051;-85
2022/09/02 23:24:25;;;;;;;2.90;1.00;;;;;;;;;;6148569;23;20029;-86
2022/09/02 23:27:09;;;;;;;2.13;1.00;;;;;;;;;;6146191;23;20030;-87
2022/09/02 23:29:40;;;;;;;1.98;1.10;;;;;;;;;;6147209;23;20025;-87
2022/09/02 23:32:31;;;;;;;1.45;0.85;;;;;;;;;;6170005;23;20030;-86
2022/09/02 23:34:59;;;;;;;1.58;1.05;;;;;;;;;;6148290;23;20026;-86
2022/09/02 23:37:36;;;;;;;2.90;1.08;;;;;;;;;;6148453;23;20052;-86
2022/09/02 23:40:22;;;;;;;1.90;1.27;;;;;;;;;;6148397;23;20056;-86
2022/09/02 23:42:59;;;;;;;2.22;1.00;;;;;;;;;;6147882;23;20060;-86
2022/09/02 23:45:27;;;;;;;1.10;1.00;;;;;;;;;;6147437;23;20475;-86
2022/09/02 23:47:57;;;;;;;1.58;0.98;;;;;;;;;;6147948;23;20044;-85